This is the latest recevied weather packets stored in our database for station/object XE2CT-20. If no packets are shown the sender has not sent any weather packets the latest 10 day(s).
| Time | Temp. | Humidity | Pressure | Rain* | Wind** | Luminosity | Snow |
|---|---|---|---|---|---|---|---|
| 1777893142 | 23.33° C | 68% | 1021 hPa | - | - | - | - |
| 1777892241 | 23.89° C | 67% | 1020 hPa | - | - | - | - |
| 1777891340 | 23.33° C | 65% | 1019 hPa | - | - | - | - |
| 1777890439 | 23.33° C | 64% | 1018 hPa | - | - | - | - |
| 1777889538 | 23.33° C | 63% | 1018 hPa | - | - | - | - |
| 1777888637 | 23.33° C | 63% | 1019 hPa | - | - | - | - |
| 1777887736 | 22.78° C | 66% | 1020 hPa | - | - | - | - |
| 1777886835 | 23.33° C | 63% | 1019 hPa | - | - | - | - |
| 1777885934 | 23.33° C | 65% | 1020 hPa | - | - | - | - |
| 1777885033 | 23.89° C | 61% | 1019 hPa | - | - | - | - |
| 1777884132 | 24.44° C | 59% | 1018 hPa | - | - | - | - |
| 1777883231 | 24.44° C | 60% | 1018 hPa | - | - | - | - |
| 1777882330 | 25° C | 64% | 1021 hPa | - | - | - | - |
| 1777881428 | 25° C | 58% | 1018 hPa | - | - | - | - |
| 1777880527 | 24.44° C | 59% | 1019 hPa | - | - | - | - |
| 1777879626 | 25° C | 58% | 1019 hPa | - | - | - | - |
| 1777878725 | 24.44° C | 59% | 1020 hPa | - | - | - | - |
| 1777877824 | 24.44° C | 59% | 1021 hPa | - | - | - | - |
| 1777876923 | 24.44° C | 62% | 1023 hPa | - | - | - | - |
| 1777876022 | 24.44° C | 60% | 1022 hPa | - | - | - | - |
| 1777875121 | 24.44° C | 59% | 1022 hPa | - | - | - | - |
| 1777874220 | 25° C | 57% | 1021 hPa | - | - | - | - |
| 1777873319 | 25° C | 56% | 1021 hPa | - | - | - | - |
| 1777872418 | 25.56° C | 56% | 1021 hPa | - | - | - | - |
| 1777871517 | 25.56° C | 58% | 1023 hPa | - | - | - | - |
* Rain since midnight (hover to see other rain measurements)
** Current wind speed in m/s (hover to see current wind gust speed)